Time;durP1;ratioP1;P1;durP2;ratioP2;P2;SDS_P1;SDS_P2;PMS_P1;PMS_P2;Temp;Humidity;BMP_temperature;BMP_pressure;BME280_temperature;BME280_humidity;BME280_pressure;Samples;Min_cycle;Max_cycle;Signal;HPM_P1;HPM_P2
2022/10/21 00:01:29;;;;;;;4.20;1.40;;;;;;;-143.84;37.10;45117.63;5072060;28;20770;-75
2022/10/21 00:03:56;;;;;;;4.70;1.60;;;;;;;-143.84;37.11;45136.66;5072087;28;20497;-75
2022/10/21 00:06:23;;;;;;;6.03;2.00;;;;;;;-143.84;37.21;45092.88;5072235;28;20479;-75
2022/10/21 00:08:50;;;;;;;11.43;1.70;;;;;;;-143.84;36.82;45123.34;5072183;28;20471;-75
2022/10/21 00:11:19;;;;;;;3.07;1.50;;;;;;;-143.84;37.55;45079.53;5071936;28;20439;-75
2022/10/21 00:13:46;;;;;;;6.03;1.80;;;;;;;-143.84;37.45;45125.22;5072119;28;20442;-75
2022/10/21 00:16:17;;;;;;;1.50;1.40;;;;;;;-143.84;37.61;45115.72;5071918;28;20527;-75
2022/10/21 00:18:46;;;;;;;5.80;1.80;;;;;;;-143.84;37.33;45115.72;5071735;28;20434;-75
2022/10/21 00:21:16;;;;;;;5.40;2.03;;;;;;;-143.84;37.84;45123.34;5072060;28;20491;-75
2022/10/21 00:23:43;;;;;;;4.17;1.87;;;;;;;-143.84;38.44;45132.84;5072230;28;20483;-75
2022/10/21 00:26:12;;;;;;;4.90;1.40;;;;;;;-143.84;37.85;45111.91;5071946;28;20531;-75
2022/10/21 00:28:41;;;;;;;2.93;1.63;;;;;;;-143.84;38.54;45132.84;5071884;28;20783;-75
2022/10/21 00:31:09;;;;;;;6.80;1.87;;;;;;;-143.84;38.68;45108.09;5072118;28;20429;-75
2022/10/21 00:33:37;;;;;;;2.63;2.10;;;;;;;-143.84;38.53;45111.91;5072027;28;20442;-75
2022/10/21 00:36:06;;;;;;;2.40;2.00;;;;;;;-143.84;38.83;45121.44;5071710;28;20955;-75
2022/10/21 00:38:35;;;;;;;5.00;1.90;;;;;;;-143.84;38.72;45110.00;5071992;28;20446;-75
2022/10/21 00:41:02;;;;;;;5.93;1.73;;;;;;;-143.84;39.19;45104.28;5071691;28;20920;-75
2022/10/21 00:43:30;;;;;;;3.03;1.80;;;;;;;-143.84;39.23;45100.47;5071885;28;20445;-75
2022/10/21 00:46:03;;;;;;;3.63;2.07;;;;;;;-143.84;39.42;45108.09;5071579;28;20480;-75
2022/10/21 00:48:34;;;;;;;6.23;2.43;;;;;;;-143.84;39.64;45134.75;5071718;28;20469;-75
2022/10/21 00:51:05;;;;;;;2.63;1.70;;;;;;;-143.84;39.21;45117.63;5071816;28;20511;-75
2022/10/21 00:53:34;;;;;;;1.67;1.50;;;;;;;-143.84;39.20;45130.94;5071548;28;20430;-75
2022/10/21 00:56:05;;;;;;;6.40;1.70;;;;;;;-143.84;39.45;45110.00;5087179;28;20452;-75
2022/10/21 00:58:34;;;;;;;1.93;1.73;;;;;;;-143.84;39.31;45110.00;5091807;28;20432;-75
2022/10/21 01:01:07;;;;;;;3.37;1.87;;;;;;;-143.84;39.43;45148.09;5091897;28;20494;-75
2022/10/21 01:03:35;;;;;;;4.23;1.90;;;;;;;-143.84;39.82;45110.00;5092800;28;20439;-75
2022/10/21 01:06:07;;;;;;;3.20;1.80;;;;;;;-143.84;39.72;45117.63;5095163;28;20464;-75
2022/10/21 01:08:35;;;;;;;3.30;1.70;;;;;;;-143.84;39.51;45119.53;5094792;28;20434;-75
2022/10/21 01:11:02;;;;;;;1.63;1.53;;;;;;;-143.84;40.23;45098.56;5078195;28;20452;-75
2022/10/21 01:13:39;;;;;;;6.07;1.90;;;;;;;-143.84;39.67;45125.22;5074942;28;20437;-75
2022/10/21 01:16:17;;;;;;;1.70;1.30;;;;;;;-143.84;40.19;45106.19;5073397;28;20429;-75
2022/10/21 01:18:52;;;;;;;4.00;1.77;;;;;;;-143.84;39.87;45117.63;5073920;28;20908;-75
2022/10/21 01:21:32;;;;;;;3.77;1.50;;;;;;;-143.84;40.19;45111.91;5075059;28;20475;-75
2022/10/21 01:24:39;;;;;;;6.50;2.17;;;;;;;-143.84;41.01;45119.53;5075128;28;20820;-75
2022/10/21 01:27:16;;;;;;;1.60;1.50;;;;;;;-143.84;40.95;45117.63;5105255;28;20540;-75
2022/10/21 01:30:17;;;;;;;1.73;1.43;;;;;;;-143.84;41.27;45106.19;5115577;28;20435;-75
2022/10/21 01:33:02;;;;;;;6.83;2.20;;;;;;;-143.84;40.58;45129.03;5105353;28;20444;-75
2022/10/21 01:35:37;;;;;;;2.83;1.80;;;;;;;-143.84;40.56;45129.03;5114967;28;20492;-75
2022/10/21 01:38:10;;;;;;;1.43;1.30;;;;;;;-143.84;40.90;45092.88;5115201;28;20438;-75
2022/10/21 01:40:45;;;;;;;2.10;1.80;;;;;;;-143.84;41.00;45115.72;5115075;28;20435;-75
2022/10/21 01:43:19;;;;;;;1.73;1.63;;;;;;;-143.84;40.60;45125.22;5114595;28;20435;-75
2022/10/21 01:45:51;;;;;;;2.13;1.60;;;;;;;-143.84;41.08;45104.28;5114959;28;20465;-75
2022/10/21 01:48:24;;;;;;;8.70;1.93;;;;;;;-143.84;41.30;45098.56;5114936;28;20491;-75
2022/10/21 01:50:57;;;;;;;1.73;1.60;;;;;;;-143.84;41.04;45108.09;5115073;28;20488;-75
2022/10/21 01:53:29;;;;;;;6.43;1.60;;;;;;;-143.84;41.02;45125.22;5075805;28;20448;-75
2022/10/21 01:55:59;;;;;;;2.90;1.80;;;;;;;-143.84;41.17;45134.75;5074606;28;20430;-75
2022/10/21 01:58:30;;;;;;;7.90;1.73;;;;;;;-143.84;41.61;45115.72;5074088;28;20461;-75
2022/10/21 02:01:00;;;;;;;5.43;1.77;;;;;;;-143.84;40.97;45123.34;5074518;28;20474;-75
2022/10/21 02:03:33;;;;;;;1.90;1.70;;;;;;;-143.84;41.43;45123.34;5074093;28;20496;-75
2022/10/21 02:06:00;;;;;;;2.13;1.57;;;;;;;-143.84;41.02;45110.00;5073715;28;20466;-75
2022/10/21 02:08:27;;;;;;;1.93;1.80;;;;;;;-143.84;41.55;45142.38;5073991;28;20433;-75
2022/10/21 02:11:01;;;;;;;2.47;1.67;;;;;;;-143.84;41.14;45092.88;5073397;28;20933;-75
2022/10/21 02:13:34;;;;;;;2.63;1.50;;;;;;;-143.84;40.75;45146.19;5073725;28;20442;-75
2022/10/21 02:16:06;;;;;;;10.80;2.30;;;;;;;-143.84;41.13;45104.28;5072988;28;20505;-75
2022/10/21 02:18:35;;;;;;;4.30;1.87;;;;;;;-143.84;41.10;45127.13;5073610;28;20911;-74
2022/10/21 02:21:06;;;;;;;2.20;1.97;;;;;;;-143.84;41.28;45123.34;5073670;28;20437;-75
2022/10/21 02:23:40;;;;;;;4.37;2.07;;;;;;;-143.84;41.02;45115.72;5073526;28;20430;-75
2022/10/21 02:26:07;;;;;;;2.97;1.83;;;;;;;-143.84;41.71;45113.81;5073263;28;20515;-75
2022/10/21 02:28:35;;;;;;;16.83;2.30;;;;;;;-143.84;42.02;45115.72;5073672;28;20433;-75
2022/10/21 02:31:16;;;;;;;5.20;2.00;;;;;;;-143.84;41.80;45132.84;5073615;28;20544;-75
2022/10/21 02:33:56;;;;;;;3.20;2.23;;;;;;;-143.84;41.73;45108.09;5073584;28;20487;-74
2022/10/21 02:36:33;;;;;;;1.93;1.73;;;;;;;-143.84;41.81;45108.09;5073314;28;20442;-75
2022/10/21 02:39:07;;;;;;;3.60;1.67;;;;;;;-143.84;41.91;45113.81;5081413;28;20449;-75
2022/10/21 02:41:36;;;;;;;11.47;1.90;;;;;;;-143.84;41.90;45129.03;5073343;28;20433;-75
2022/10/21 02:44:05;;;;;;;4.20;2.13;;;;;;;-143.84;42.05;45117.63;5073302;28;20496;-75
2022/10/21 02:46:36;;;;;;;2.13;1.77;;;;;;;-143.84;41.77;45121.44;5073110;28;20527;-75
2022/10/21 02:49:05;;;;;;;3.83;1.70;;;;;;;-143.84;41.42;45134.75;5072703;28;21078;-75
2022/10/21 02:51:33;;;;;;;1.97;1.77;;;;;;;-143.84;42.17;45121.44;5073332;28;20457;-75
2022/10/21 02:54:00;;;;;;;3.30;1.70;;;;;;;-143.84;41.51;45125.22;5072933;28;20575;-74
2022/10/21 02:56:27;;;;;;;3.27;1.80;;;;;;;-143.84;42.07;45125.22;5073089;28;20868;-74
2022/10/21 02:58:54;;;;;;;3.73;2.37;;;;;;;-143.84;41.46;45130.94;5072893;28;20429;-75
2022/10/21 03:01:22;;;;;;;2.37;1.90;;;;;;;-143.84;41.47;45129.03;5072793;28;20436;-75
2022/10/21 03:03:49;;;;;;;1.80;1.70;;;;;;;-143.84;42.50;45119.53;5072944;28;20437;-75
2022/10/21 03:06:17;;;;;;;2.80;1.93;;;;;;;-143.84;41.97;45113.81;5072822;28;20472;-74
2022/10/21 03:08:45;;;;;;;4.90;1.70;;;;;;;-143.84;42.09;45104.28;5072664;28;20445;-74
2022/10/21 03:11:12;;;;;;;3.60;2.07;;;;;;;-143.84;42.05;45096.66;5072591;28;20445;-75
2022/10/21 03:13:40;;;;;;;4.10;2.20;;;;;;;-143.84;42.06;45129.03;5072323;28;20491;-75
2022/10/21 03:16:08;;;;;;;1.50;1.40;;;;;;;-143.84;41.48;45138.56;5072738;28;20437;-75
2022/10/21 03:18:35;;;;;;;4.20;1.90;;;;;;;-143.84;42.04;45110.00;5072719;28;20429;-75
2022/10/21 03:21:02;;;;;;;3.17;1.90;;;;;;;-143.84;42.28;45117.63;5072645;28;20440;-75
2022/10/21 03:23:31;;;;;;;2.23;1.70;;;;;;;-143.84;42.31;45134.75;5072434;28;20433;-73
2022/10/21 03:25:58;;;;;;;3.33;1.93;;;;;;;-143.84;42.66;45125.22;5072282;28;20452;-73
2022/10/21 03:28:25;;;;;;;1.93;1.80;;;;;;;-143.84;42.32;45108.09;5081335;28;20440;-74
2022/10/21 03:30:52;;;;;;;5.60;1.90;;;;;;;-143.84;41.54;45111.91;5072986;28;20499;-74
2022/10/21 03:33:19;;;;;;;8.67;2.00;;;;;;;-143.84;41.44;45121.44;5072427;28;20482;-75
2022/10/21 03:35:46;;;;;;;1.97;1.87;;;;;;;-143.84;41.15;45123.34;5072173;28;20507;-74
2022/10/21 03:38:13;;;;;;;4.30;2.23;;;;;;;-143.84;41.99;45123.34;5085221;28;20459;-74
2022/10/21 03:40:42;;;;;;;1.90;1.80;;;;;;;-143.84;41.60;45104.28;5092359;28;20428;-74
2022/10/21 03:43:09;;;;;;;3.63;2.03;;;;;;;-143.84;41.53;45123.34;5076025;28;20503;-75
2022/10/21 03:45:36;;;;;;;4.90;1.90;;;;;;;-143.84;41.96;45096.66;5072328;28;20909;-76
2022/10/21 03:48:04;;;;;;;3.63;2.30;;;;;;;-143.84;41.51;45119.53;5070578;28;20494;-74
2022/10/21 03:50:31;;;;;;;4.73;2.20;;;;;;;-143.84;42.05;45113.81;5072114;28;20448;-75
2022/10/21 03:52:59;;;;;;;1.87;1.77;;;;;;;-143.84;42.56;45102.38;5070413;28;20510;-74
2022/10/21 03:55:27;;;;;;;3.63;1.93;;;;;;;-143.84;41.96;45123.34;5070132;28;20452;-73
2022/10/21 03:57:55;;;;;;;8.20;2.07;;;;;;;-143.84;42.05;45113.81;5079153;28;20434;-73
2022/10/21 04:00:23;;;;;;;2.30;1.87;;;;;;;-143.84;42.02;45134.75;5077371;28;20430;-74
2022/10/21 04:02:52;;;;;;;2.70;2.50;;;;;;;-143.84;41.79;45123.34;5070291;28;20591;-74
2022/10/21 04:05:19;;;;;;;2.33;2.20;;;;;;;-143.84;41.65;45132.84;5069359;28;20509;-74
2022/10/21 04:07:46;;;;;;;6.47;2.53;;;;;;;-143.84;42.68;45136.66;5073780;28;20468;-73
2022/10/21 04:10:14;;;;;;;4.27;2.30;;;;;;;-143.84;42.41;45123.34;5090248;28;20462;-74
2022/10/21 04:12:41;;;;;;;3.80;2.50;;;;;;;-143.84;42.28;45121.44;5091224;28;20794;-74
2022/10/21 04:15:12;;;;;;;3.70;2.47;;;;;;;-143.84;42.71;45102.38;5091503;28;20449;-73
2022/10/21 04:17:40;;;;;;;3.50;1.90;;;;;;;-143.84;42.93;45110.00;5081326;28;20446;-73
2022/10/21 04:20:08;;;;;;;3.60;2.03;;;;;;;-143.84;42.68;45117.63;5074603;28;20429;-73
2022/10/21 04:22:36;;;;;;;6.30;2.23;;;;;;;-143.84;42.65;45123.34;5071410;28;20434;-73
2022/10/21 04:25:03;;;;;;;3.53;2.30;;;;;;;-143.84;43.38;45127.13;5057978;28;20443;-74
2022/10/21 04:27:30;;;;;;;3.20;2.03;;;;;;;-143.84;42.96;45117.63;5091814;28;20475;-74
2022/10/21 04:29:57;;;;;;;7.90;2.47;;;;;;;-143.84;43.31;45113.81;5090558;28;20505;-73
2022/10/21 04:32:25;;;;;;;4.67;2.80;;;;;;;-143.84;43.26;45119.53;5089968;28;20948;-73
2022/10/21 04:34:52;;;;;;;2.97;2.03;;;;;;;-143.84;44.07;45102.38;5090980;28;20443;-72
2022/10/21 04:37:20;;;;;;;5.70;2.07;;;;;;;-143.84;43.30;45148.09;5091621;28;20477;-76
2022/10/21 04:39:47;;;;;;;6.80;2.47;;;;;;;-143.84;43.13;45115.72;5084546;28;20510;-74
2022/10/21 04:42:14;;;;;;;3.80;2.30;;;;;;;-143.84;42.77;45119.53;5075654;28;20437;-74
2022/10/21 04:44:41;;;;;;;6.50;2.30;;;;;;;-143.84;42.86;45132.84;5075278;28;20506;-73
2022/10/21 04:47:08;;;;;;;7.63;2.30;;;;;;;-143.84;42.85;45123.34;5075613;28;20492;-74
2022/10/21 04:49:36;;;;;;;3.50;2.67;;;;;;;-143.84;42.99;45100.47;5075034;28;20472;-73
2022/10/21 04:52:04;;;;;;;5.53;2.50;;;;;;;-143.84;43.36;45117.63;5075429;28;20456;-74
2022/10/21 04:54:31;;;;;;;4.70;2.17;;;;;;;-143.84;43.76;45150.00;5074581;28;20452;-74
2022/10/21 04:56:58;;;;;;;4.40;2.10;;;;;;;-143.84;43.34;45102.38;5075178;28;20799;-75
2022/10/21 04:59:26;;;;;;;2.80;2.20;;;;;;;-143.84;43.01;45127.13;5074778;28;20490;-75
2022/10/21 05:01:53;;;;;;;5.03;2.40;;;;;;;-143.84;43.38;45111.91;5074733;28;20440;-75
2022/10/21 05:04:20;;;;;;;2.70;2.50;;;;;;;-143.84;43.12;45140.47;5074759;28;20907;-75
2022/10/21 05:06:48;;;;;;;4.00;3.70;;;;;;;-143.84;42.73;45132.84;5074565;28;20438;-74
2022/10/21 05:09:16;;;;;;;2.43;2.23;;;;;;;-143.84;43.38;45117.63;5076037;28;20449;-75
2022/10/21 05:11:43;;;;;;;10.40;6.30;;;;;;;-143.84;43.71;45140.47;5073809;28;20472;-74
2022/10/21 05:14:10;;;;;;;5.70;3.77;;;;;;;-143.84;43.22;45134.75;5074106;28;20445;-75
2022/10/21 05:16:37;;;;;;;12.13;4.67;;;;;;;-143.84;43.51;45102.38;5074547;28;20429;-75
2022/10/21 05:19:05;;;;;;;47.13;28.27;;;;;;;-143.84;43.44;45117.63;5074493;28;20445;-75
2022/10/21 05:21:32;;;;;;;35.60;17.07;;;;;;;-143.84;42.58;45104.28;5073939;28;20446;-74
2022/10/21 05:24:00;;;;;;;26.00;12.77;;;;;;;-143.84;42.46;45148.09;5074328;28;20933;-74
2022/10/21 05:26:29;;;;;;;11.03;2.73;;;;;;;-143.84;42.89;45132.84;5079181;28;20448;-74
2022/10/21 05:28:57;;;;;;;5.50;2.47;;;;;;;-143.84;42.83;45117.63;5072403;28;20493;-74
2022/10/21 05:31:24;;;;;;;2.50;2.00;;;;;;;-143.84;42.85;45117.63;5072696;28;21353;-74
2022/10/21 05:33:51;;;;;;;6.30;2.10;;;;;;;-143.84;42.59;45113.81;5074848;28;20450;-74
2022/10/21 05:36:19;;;;;;;3.57;2.27;;;;;;;-143.84;42.87;45104.28;5072097;28;20523;-74
2022/10/21 05:38:46;;;;;;;5.03;2.57;;;;;;;-143.84;42.12;45138.56;5072481;28;20441;-74
2022/10/21 05:41:15;;;;;;;6.23;2.30;;;;;;;-143.84;41.75;45104.28;5072490;28;20471;-74
2022/10/21 05:43:42;;;;;;;3.83;2.73;;;;;;;-143.84;41.35;45121.44;5072411;28;20521;-74
2022/10/21 05:46:09;;;;;;;5.93;3.13;;;;;;;-143.84;41.24;45089.06;5072076;28;21007;-74
2022/10/21 05:48:37;;;;;;;14.43;2.60;;;;;;;-143.84;40.98;45089.06;5071291;28;20505;-75
2022/10/21 05:51:07;;;;;;;5.60;2.07;;;;;;;-143.84;40.58;45094.78;5072264;28;20468;-74
2022/10/21 05:53:34;;;;;;;6.63;2.37;;;;;;;-143.84;40.09;45081.44;5072301;28;20450;-74
2022/10/21 05:56:03;;;;;;;3.60;2.23;;;;;;;-143.84;39.38;45096.66;5072317;28;20457;-74
2022/10/21 05:58:33;;;;;;;2.40;2.20;;;;;;;-143.84;39.21;45085.25;5072095;28;20498;-75
2022/10/21 06:01:00;;;;;;;9.20;2.50;;;;;;;-143.84;38.99;45077.63;5072160;28;20452;-74
2022/10/21 06:03:30;;;;;;;6.80;2.83;;;;;;;-143.84;38.63;45079.53;5072326;28;20424;-75
2022/10/21 06:05:57;;;;;;;5.73;2.47;;;;;;;-143.84;38.03;45077.63;5071615;28;20515;-74
2022/10/21 06:08:24;;;;;;;4.63;2.10;;;;;;;-143.84;37.49;45087.16;5071474;28;20542;-74
2022/10/21 06:11:00;;;;;;;2.17;1.97;;;;;;;-143.84;37.90;45073.81;5071741;28;20449;-74
2022/10/21 06:13:27;;;;;;;2.37;2.17;;;;;;;-143.84;37.76;45089.06;5072113;28;20439;-74
2022/10/21 06:15:56;;;;;;;11.53;2.60;;;;;;;-143.84;36.79;45085.25;5091728;28;20824;-74
2022/10/21 06:18:23;;;;;;;4.00;2.13;;;;;;;-143.84;36.38;45056.69;5092375;28;20454;-75
2022/10/21 06:20:51;;;;;;;4.60;2.40;;;;;;;-143.84;36.13;45096.66;5091331;28;20859;-75
2022/10/21 06:23:18;;;;;;;9.13;2.20;;;;;;;-143.84;36.70;45056.69;5092121;28;20442;-74
2022/10/21 06:25:56;;;;;;;4.60;2.00;;;;;;;-143.84;36.00;45087.16;5091963;28;20433;-75
2022/10/21 06:28:24;;;;;;;2.80;1.40;;;;;;;-143.84;35.31;45090.97;5091306;28;20991;-74
2022/10/21 06:30:51;;;;;;;8.10;1.90;;;;;;;-143.84;36.01;45081.44;5091610;28;20507;-74
2022/10/21 06:33:20;;;;;;;8.53;2.53;;;;;;;-143.84;35.29;45071.91;5086979;28;20441;-75
2022/10/21 06:35:47;;;;;;;8.57;1.80;;;;;;;-143.84;35.22;45085.25;5075084;28;20452;-74
2022/10/21 06:38:14;;;;;;;6.53;2.00;;;;;;;-143.84;35.25;45073.81;5071330;28;20445;-75
2022/10/21 06:40:42;;;;;;;9.53;2.23;;;;;;;-143.84;34.69;45089.06;5071078;28;20517;-75
2022/10/21 06:43:09;;;;;;;2.53;1.90;;;;;;;-143.84;34.94;45056.69;5071388;28;20429;-75
2022/10/21 06:45:36;;;;;;;8.10;2.40;;;;;;;-143.84;35.22;45066.22;5071227;28;20475;-75
2022/10/21 06:48:04;;;;;;;6.90;2.83;;;;;;;-143.84;34.48;45052.88;5071099;28;20497;-75
2022/10/21 06:50:33;;;;;;;2.10;2.00;;;;;;;-143.84;33.27;45066.22;5071128;28;20506;-75
2022/10/21 06:53:00;;;;;;;1.80;1.63;;;;;;;-143.84;33.31;45083.34;5071310;28;20445;-75
2022/10/21 06:55:27;;;;;;;9.27;1.77;;;;;;;-143.84;33.63;45031.94;5071093;28;20443;-75
2022/10/21 06:57:54;;;;;;;7.17;1.83;;;;;;;-143.84;32.70;45066.22;5070917;28;20445;-75
2022/10/21 07:00:22;;;;;;;10.83;2.87;;;;;;;-143.84;32.83;45062.41;5070725;28;20433;-75
2022/10/21 07:02:49;;;;;;;3.33;2.10;;;;;;;-143.84;32.45;45075.72;5071060;28;20485;-76
2022/10/21 07:05:16;;;;;;;4.10;1.83;;;;;;;-143.84;32.71;45068.13;5071230;28;20507;-75
2022/10/21 07:07:45;;;;;;;4.90;1.97;;;;;;;-143.84;31.04;45024.31;5070479;28;20490;-75
2022/10/21 07:10:12;;;;;;;8.73;1.90;;;;;;;-143.84;31.66;45052.88;5070980;28;20512;-73
2022/10/21 07:12:40;;;;;;;4.70;2.00;;;;;;;-143.84;32.15;45039.53;5070987;28;20443;-73
2022/10/21 07:15:08;;;;;;;9.10;2.23;;;;;;;-143.84;31.14;45024.31;5071183;28;21291;-74
2022/10/21 07:17:35;;;;;;;1.93;1.60;;;;;;;-143.84;30.44;45052.88;5071086;28;20443;-73
2022/10/21 07:20:02;;;;;;;12.80;4.37;;;;;;;-143.84;34.68;45070.00;5071014;28;21266;-73
2022/10/21 07:22:30;;;;;;;15.73;4.93;;;;;;;-143.84;34.93;45054.78;5070670;28;20454;-75
2022/10/21 07:24:59;;;;;;;9.83;3.90;;;;;;;-143.84;35.79;45035.75;5070442;28;20515;-75
2022/10/21 07:27:26;;;;;;;9.13;4.73;;;;;;;-143.84;34.66;45039.53;5070608;28;20491;-75
2022/10/21 07:29:53;;;;;;;15.30;4.00;;;;;;;-143.84;34.99;45073.81;5070484;28;21030;-75
2022/10/21 07:32:20;;;;;;;13.37;3.57;;;;;;;-143.84;35.08;45064.31;5070572;28;20500;-75
2022/10/21 07:34:47;;;;;;;8.93;4.47;;;;;;;-143.84;36.05;45050.97;5085810;28;20444;-75
2022/10/21 07:37:14;;;;;;;10.70;3.30;;;;;;;-143.84;35.79;45047.16;5090945;28;20431;-75
2022/10/21 07:39:41;;;;;;;7.30;3.60;;;;;;;-143.84;35.93;45050.97;5090855;28;21138;-75
2022/10/21 07:42:10;;;;;;;10.40;3.57;;;;;;;-143.84;35.58;45085.25;5090591;28;20476;-75
2022/10/21 07:44:38;;;;;;;13.37;4.23;;;;;;;-143.84;35.65;45073.81;5090880;28;20788;-75
2022/10/21 07:47:05;;;;;;;9.13;2.90;;;;;;;-143.84;35.48;45041.44;5090633;28;20449;-75
2022/10/21 07:49:32;;;;;;;12.17;3.73;;;;;;;-143.84;34.68;45043.34;5090333;28;20534;-75
2022/10/21 07:51:59;;;;;;;10.90;3.20;;;;;;;-143.84;33.96;45052.88;5090352;28;21018;-75
2022/10/21 07:54:26;;;;;;;7.20;2.47;;;;;;;-143.84;34.90;45045.25;5090428;28;20442;-75
2022/10/21 07:56:53;;;;;;;5.30;2.40;;;;;;;-143.84;34.00;45037.66;5090525;28;20458;-75
2022/10/21 07:59:22;;;;;;;3.53;2.73;;;;;;;-143.84;33.41;45050.97;5090183;28;20439;-76
2022/10/21 08:01:51;;;;;;;13.30;3.80;;;;;;;-143.84;34.12;45047.16;5089888;28;20442;-75
2022/10/21 08:04:21;;;;;;;14.03;3.03;;;;;;;-143.84;34.16;45037.66;5089763;28;20450;-75
2022/10/21 08:06:49;;;;;;;3.20;2.47;;;;;;;-143.84;34.15;45024.31;5089748;28;20447;-75
2022/10/21 08:09:17;;;;;;;5.67;2.60;;;;;;;-143.84;33.65;45060.50;5071536;28;21020;-75
2022/10/21 08:11:44;;;;;;;5.40;2.50;;;;;;;-143.84;33.42;45033.84;5069349;28;20444;-74
2022/10/21 08:14:12;;;;;;;4.77;2.70;;;;;;;-143.84;33.69;45043.34;5073264;28;20440;-75
2022/10/21 08:16:41;;;;;;;4.20;2.10;;;;;;;-143.84;34.56;45031.94;5073253;28;20502;-73
2022/10/21 08:19:09;;;;;;;6.83;2.33;;;;;;;-143.84;32.97;45037.66;5073109;28;20448;-72
2022/10/21 08:21:37;;;;;;;3.87;2.50;;;;;;;-143.84;32.63;45035.75;5073197;28;20462;-73
2022/10/21 08:24:05;;;;;;;9.80;2.70;;;;;;;-143.84;33.27;45026.22;5072693;28;20470;-72
2022/10/21 08:26:32;;;;;;;12.50;6.40;;;;;;;-143.84;33.18;45018.59;5073452;28;20431;-72
2022/10/21 08:29:00;;;;;;;10.90;6.10;;;;;;;-143.84;32.57;45047.16;5073069;28;20480;-72
2022/10/21 08:31:27;;;;;;;5.73;2.80;;;;;;;-143.84;32.25;45031.94;5073127;28;20445;-72
2022/10/21 08:33:57;;;;;;;3.20;2.90;;;;;;;-143.84;32.38;45066.22;5075242;28;20437;-72
2022/10/21 08:36:25;;;;;;;3.00;2.73;;;;;;;-143.84;32.66;45024.31;5093056;28;20446;-72
2022/10/21 08:38:53;;;;;;;3.80;2.93;;;;;;;-143.84;31.60;45010.97;5092810;28;20436;-72
2022/10/21 08:41:36;;;;;;;7.47;2.60;;;;;;;-143.84;31.20;45033.84;5074829;28;20937;-73
2022/10/21 08:44:07;;;;;;;2.97;2.50;;;;;;;-143.84;31.60;45026.22;5093233;28;20440;-72
2022/10/21 08:46:39;;;;;;;2.70;2.10;;;;;;;-143.84;30.96;45005.28;5093365;28;20837;-72
2022/10/21 08:49:14;;;;;;;15.83;2.47;;;;;;;-143.84;30.99;45003.38;5092646;28;20487;-72
2022/10/21 08:51:47;;;;;;;4.20;2.17;;;;;;;-143.84;31.05;45033.84;5093228;28;20795;-73
2022/10/21 08:54:19;;;;;;;4.67;3.10;;;;;;;-143.84;31.16;45003.38;5093379;28;20428;-73
2022/10/21 08:56:49;;;;;;;2.70;2.13;;;;;;;-143.84;31.62;45056.69;5093131;28;20442;-73
2022/10/21 08:59:22;;;;;;;6.80;2.10;;;;;;;-143.84;31.35;45018.59;5093471;28;20581;-73
2022/10/21 09:01:58;;;;;;;2.40;1.73;;;;;;;-143.84;31.43;44980.53;5093380;28;21136;-73
2022/10/21 09:04:37;;;;;;;2.10;1.87;;;;;;;-143.84;31.38;45028.13;5093197;28;20977;-73
2022/10/21 09:07:15;;;;;;;5.80;2.37;;;;;;;-143.84;31.89;45039.53;5093462;28;20443;-73
2022/10/21 09:09:52;;;;;;;2.20;2.10;;;;;;;-143.84;31.10;45031.94;5073098;28;20989;-73
2022/10/21 09:12:26;;;;;;;2.80;1.93;;;;;;;-143.84;31.02;45045.25;5072373;28;20440;-73
2022/10/21 09:15:06;;;;;;;6.83;2.40;;;;;;;-143.84;31.15;45014.78;5072613;28;20486;-73
2022/10/21 09:17:45;;;;;;;3.60;1.67;;;;;;;-143.84;31.42;45014.78;5072560;28;20513;-73
2022/10/21 09:20:26;;;;;;;5.53;2.00;;;;;;;-143.84;31.88;45031.94;5072414;28;20445;-73
2022/10/21 09:23:03;;;;;;;2.10;1.90;;;;;;;-143.84;31.26;44997.66;5072816;28;20444;-72
2022/10/21 09:25:34;;;;;;;2.27;1.83;;;;;;;-143.84;31.06;44999.56;5071541;28;20436;-72
2022/10/21 09:28:09;;;;;;;3.50;1.80;;;;;;;-143.84;31.05;45037.66;5072401;28;20437;-72
2022/10/21 09:30:37;;;;;;;4.60;2.30;;;;;;;-143.84;31.04;45041.44;5054259;28;21017;-72
2022/10/21 09:33:12;;;;;;;1.80;1.53;;;;;;;-143.84;31.14;45056.69;5072135;28;20449;-72
2022/10/21 09:35:47;;;;;;;14.50;2.20;;;;;;;-143.84;31.49;45014.78;5074786;28;20527;-72
2022/10/21 09:38:20;;;;;;;2.00;1.80;;;;;;;-143.84;31.38;45018.59;5072040;28;20448;-72
2022/10/21 09:40:57;;;;;;;2.93;1.60;;;;;;;-143.84;31.01;45041.44;5071903;28;20445;-72
2022/10/21 09:43:27;;;;;;;2.60;1.77;;;;;;;-143.84;31.63;45028.13;5072099;28;20447;-72
2022/10/21 09:45:54;;;;;;;10.03;2.73;;;;;;;-143.84;30.91;45030.03;5071869;28;20517;-73
2022/10/21 09:48:28;;;;;;;2.53;1.50;;;;;;;-143.84;31.06;45020.50;5071717;28;20488;-73
2022/10/21 09:51:01;;;;;;;3.17;1.90;;;;;;;-143.84;32.08;45045.25;5071725;28;20457;-73
2022/10/21 09:53:33;;;;;;;1.73;1.53;;;;;;;-143.84;31.21;45010.97;5070980;28;20483;-73
2022/10/21 09:56:03;;;;;;;3.03;1.50;;;;;;;-143.84;31.24;45005.28;5079739;28;20518;-73
2022/10/21 09:58:45;;;;;;;2.30;1.40;;;;;;;-143.84;31.05;45033.84;5070698;28;20443;-72
2022/10/21 10:01:17;;;;;;;1.60;1.40;;;;;;;-143.84;31.08;45022.41;5070121;28;20437;-72
2022/10/21 10:03:47;;;;;;;3.77;1.53;;;;;;;-143.84;30.62;45037.66;5071192;28;20806;-73
2022/10/21 10:06:34;;;;;;;4.07;1.83;;;;;;;-143.84;31.38;45020.50;5085123;28;20505;-72
2022/10/21 10:09:15;;;;;;;3.00;1.50;;;;;;;-143.84;30.88;45035.75;5091481;28;20545;-72
2022/10/21 10:11:54;;;;;;;9.43;2.03;;;;;;;-143.84;31.22;45045.25;5091581;28;20447;-73
2022/10/21 10:14:31;;;;;;;1.90;1.80;;;;;;;-143.84;31.08;44990.03;5091810;28;20435;-72
2022/10/21 10:17:18;;;;;;;3.10;1.47;;;;;;;-143.84;30.65;45005.28;5091848;28;20492;-72
2022/10/21 10:20:08;;;;;;;2.17;1.50;;;;;;;-143.84;30.55;45012.88;5091369;28;20473;-72
2022/10/21 10:22:40;;;;;;;2.57;1.50;;;;;;;-143.84;31.07;45016.69;5091501;28;20451;-73
2022/10/21 10:25:09;;;;;;;3.60;1.60;;;;;;;-143.84;30.36;45009.09;5091424;28;20436;-72
2022/10/21 10:27:36;;;;;;;1.50;1.40;;;;;;;-143.84;30.55;45031.94;5091620;28;20501;-72
2022/10/21 10:30:05;;;;;;;7.00;1.60;;;;;;;-143.84;31.98;45030.03;5076562;28;20473;-72
2022/10/21 10:32:35;;;;;;;4.33;1.53;;;;;;;-143.84;31.17;45009.09;5071141;28;20494;-73
2022/10/21 10:35:04;;;;;;;3.90;1.77;;;;;;;-143.84;31.97;45043.34;5071211;28;20433;-73
2022/10/21 10:37:34;;;;;;;4.47;1.60;;;;;;;-143.84;31.18;45022.41;5071396;28;20494;-72
2022/10/21 10:40:07;;;;;;;2.80;2.10;;;;;;;-143.84;31.40;45007.19;5071015;28;20437;-72
2022/10/21 10:42:42;;;;;;;4.27;1.80;;;;;;;-143.84;31.37;45033.84;5037033;28;20476;-72
2022/10/21 10:45:18;;;;;;;3.03;1.47;;;;;;;-143.84;32.03;45026.22;5070903;28;20440;-73
2022/10/21 10:47:49;;;;;;;2.00;1.30;;;;;;;-143.84;31.42;45009.09;5071008;28;20524;-73
2022/10/21 10:50:41;;;;;;;1.80;1.20;;;;;;;-143.84;31.83;45020.50;5070957;28;20549;-72
2022/10/21 10:53:30;;;;;;;3.00;1.30;;;;;;;-143.84;31.67;45033.84;5070695;28;20449;-72
2022/10/21 10:56:13;;;;;;;4.73;1.63;;;;;;;-143.84;31.61;45026.22;5090578;28;20489;-72
2022/10/21 10:58:45;;;;;;;4.67;1.33;;;;;;;-143.84;31.75;45028.13;5091086;28;20440;-72
2022/10/21 11:01:21;;;;;;;6.27;1.30;;;;;;;-143.84;32.08;45024.31;5090869;28;20436;-73
2022/10/21 11:03:53;;;;;;;1.40;1.30;;;;;;;-143.84;31.82;45037.66;5063702;28;20477;-72
2022/10/21 11:06:28;;;;;;;1.93;1.30;;;;;;;-143.84;32.31;45014.78;5072613;28;20452;-73
2022/10/21 11:08:58;;;;;;;1.17;1.00;;;;;;;-143.84;30.98;45039.53;5070606;28;20479;-73
2022/10/21 11:11:31;;;;;;;2.20;1.47;;;;;;;-143.84;31.57;45028.13;5071089;28;20433;-72
2022/10/21 11:13:58;;;;;;;4.13;1.40;;;;;;;-143.84;31.22;45033.84;5070437;28;20440;-73
2022/10/21 11:16:50;;;;;;;10.93;1.50;;;;;;;-143.84;31.52;45031.94;5070312;28;20507;-73
2022/10/21 11:19:24;;;;;;;2.63;1.40;;;;;;;-143.84;31.66;45045.25;5070734;28;20506;-73
2022/10/21 11:21:54;;;;;;;3.00;1.40;;;;;;;-143.84;30.55;45026.22;5070389;28;20545;-73
2022/10/21 11:24:53;;;;;;;4.03;1.70;;;;;;;-143.84;30.90;45033.84;5074428;28;21103;-73
2022/10/21 11:27:49;;;;;;;3.90;1.47;;;;;;;-143.84;30.90;45035.75;5085007;28;21096;-73
2022/10/21 11:30:19;;;;;;;1.50;1.30;;;;;;;-143.84;31.97;45045.25;5070908;28;20576;-73
2022/10/21 11:33:03;;;;;;;1.13;1.03;;;;;;;-143.84;31.91;45028.13;5069894;28;20432;-72